Time;durP1;ratioP1;P1;durP2;ratioP2;P2;SDS_P1;SDS_P2;PMS_P1;PMS_P2;Temp;Humidity;BMP_temperature;BMP_pressure;BME280_temperature;BME280_humidity;BME280_pressure;Samples;Min_cycle;Max_cycle;Signal;HPM_P1;HPM_P2
2024/01/11 00:01:12;;;;;;;52.67;27.40;;;;;;;-4.52;73.74;96337.94;5007415;28;20214;-78
2024/01/11 00:03:38;;;;;;;46.40;26.20;;;;;;;-4.56;73.84;96341.44;5022612;28;20195;-78
2024/01/11 00:06:04;;;;;;;53.00;26.50;;;;;;;-4.57;73.57;96339.75;5021809;28;20179;-78
2024/01/11 00:08:29;;;;;;;50.87;27.47;;;;;;;-4.58;74.13;96333.88;5025201;28;20203;-78
2024/01/11 00:10:54;;;;;;;47.57;26.90;;;;;;;-4.58;74.29;96330.50;5005853;28;20368;-78
2024/01/11 00:13:20;;;;;;;48.03;25.70;;;;;;;-4.57;74.57;96330.44;5024324;28;20218;-78
2024/01/11 00:15:45;;;;;;;50.20;26.93;;;;;;;-4.61;75.46;96338.97;5008808;28;20198;-78
2024/01/11 00:18:11;;;;;;;49.07;26.30;;;;;;;-4.53;74.89;96338.81;5007281;28;20223;-78
2024/01/11 00:20:36;;;;;;;49.57;25.83;;;;;;;-4.52;74.99;96345.53;5022530;28;20183;-78
2024/01/11 00:23:01;;;;;;;45.83;26.63;;;;;;;-4.55;74.87;96338.00;5021308;28;20214;-77
2024/01/11 00:25:27;;;;;;;45.70;25.53;;;;;;;-4.52;74.37;96330.31;5039035;28;20263;-78
2024/01/11 00:27:52;;;;;;;46.87;27.03;;;;;;;-4.49;74.23;96331.97;5007092;28;20183;-78
2024/01/11 00:30:17;;;;;;;51.57;25.43;;;;;;;-4.51;74.94;96333.69;5006098;28;20179;-79
2024/01/11 00:32:43;;;;;;;49.60;27.30;;;;;;;-4.58;74.82;96340.63;5024347;28;20308;-79
2024/01/11 00:35:08;;;;;;;49.43;27.47;;;;;;;-4.59;75.13;96342.34;5022820;28;20248;-79
2024/01/11 00:37:34;;;;;;;48.60;25.60;;;;;;;-4.60;74.85;96344.88;5006029;28;20179;-79
2024/01/11 00:39:59;;;;;;;45.30;25.80;;;;;;;-4.62;75.08;96334.78;5018369;28;20230;-79
2024/01/11 00:42:24;;;;;;;51.13;26.17;;;;;;;-4.65;75.00;96334.03;5022726;28;20201;-79
2024/01/11 00:44:50;;;;;;;49.43;26.00;;;;;;;-4.67;75.09;96336.63;5024316;28;20183;-78
2024/01/11 00:47:16;;;;;;;44.87;25.73;;;;;;;-4.72;75.81;96337.59;5018436;28;20190;-76
2024/01/11 00:49:42;;;;;;;46.87;25.80;;;;;;;-4.71;76.43;96339.25;5017463;28;20747;-78
2024/01/11 00:52:09;;;;;;;50.77;26.60;;;;;;;-4.68;75.96;96341.69;5019713;28;20238;-78
2024/01/11 00:54:36;;;;;;;48.77;27.17;;;;;;;-4.76;76.66;96346.97;5002050;28;20175;-78
2024/01/11 00:57:02;;;;;;;51.17;27.63;;;;;;;-4.70;76.28;96345.97;5017822;28;20200;-77
2024/01/11 00:59:27;;;;;;;50.90;25.00;;;;;;;-4.69;75.71;96347.63;5020861;28;20256;-78
2024/01/11 01:01:53;;;;;;;49.13;25.43;;;;;;;-4.71;75.40;96344.31;5019208;28;20191;-77
2024/01/11 01:04:18;;;;;;;49.77;25.47;;;;;;;-4.74;76.01;96342.69;5019123;28;20189;-77
2024/01/11 01:06:43;;;;;;;49.53;27.13;;;;;;;-4.76;75.96;96336.00;5002391;28;20205;-77
2024/01/11 01:09:09;;;;;;;53.00;27.27;;;;;;;-4.75;75.91;96342.75;5019193;28;20194;-77
2024/01/11 01:11:34;;;;;;;49.87;25.73;;;;;;;-4.77;75.94;96347.84;5002801;28;20176;-78
2024/01/11 01:14:00;;;;;;;50.50;27.00;;;;;;;-4.79;76.58;96346.19;5017667;28;20179;-78
2024/01/11 01:16:25;;;;;;;52.87;26.77;;;;;;;-4.81;77.58;96350.47;5018879;28;20196;-77
2024/01/11 01:18:50;;;;;;;53.57;26.93;;;;;;;-4.77;77.55;96350.38;5018121;28;20206;-78
2024/01/11 01:21:16;;;;;;;53.93;26.60;;;;;;;-4.70;76.91;96343.44;5000758;28;20294;-78
2024/01/11 01:23:41;;;;;;;52.10;25.87;;;;;;;-4.74;76.95;96345.22;5003213;28;20187;-78
2024/01/11 01:26:07;;;;;;;51.97;26.43;;;;;;;-4.75;76.50;96343.56;5020700;28;20175;-78
2024/01/11 01:28:32;;;;;;;47.70;25.53;;;;;;;-4.80;77.14;96340.28;5023005;28;20210;-78
2024/01/11 01:30:57;;;;;;;51.90;27.57;;;;;;;-4.85;76.94;96342.94;5005415;28;20175;-77
2024/01/11 01:33:23;;;;;;;50.43;25.77;;;;;;;-4.83;77.13;96347.16;5018999;28;20292;-78
2024/01/11 01:35:48;;;;;;;47.80;25.00;;;;;;;-4.89;77.32;96351.47;5019118;28;20198;-77
2024/01/11 01:38:13;;;;;;;49.20;25.27;;;;;;;-4.90;76.87;96349.81;5016813;28;20203;-77
2024/01/11 01:40:39;;;;;;;51.47;26.30;;;;;;;-4.94;76.83;96348.22;5004171;28;20182;-77
2024/01/11 01:43:07;;;;;;;50.60;26.30;;;;;;;-4.97;77.59;96360.13;5001534;28;20205;-78
2024/01/11 01:45:32;;;;;;;50.87;26.77;;;;;;;-4.96;77.62;96362.63;5003896;28;20179;-78
2024/01/11 01:47:57;;;;;;;55.33;27.67;;;;;;;-5.02;77.44;96359.41;5017657;28;20308;-78
2024/01/11 01:50:23;;;;;;;54.37;28.30;;;;;;;-5.00;77.89;96361.03;5019594;28;20548;-78
2024/01/11 01:52:48;;;;;;;49.40;26.07;;;;;;;-4.94;77.47;96372.72;5001580;28;20199;-78
2024/01/11 01:55:15;;;;;;;54.13;27.33;;;;;;;-4.94;78.05;96373.56;5017458;28;20277;-77
2024/01/11 01:57:41;;;;;;;54.90;27.17;;;;;;;-4.97;77.54;96375.31;5002415;28;20182;-78
2024/01/11 02:00:12;;;;;;;54.00;25.27;;;;;;;-4.94;77.96;96378.63;5020025;28;20661;-79
2024/01/11 02:02:39;;;;;;;47.67;26.53;;;;;;;-4.93;77.50;96385.38;5022588;28;20210;-79
2024/01/11 02:05:05;;;;;;;52.97;28.43;;;;;;;-4.92;77.76;96381.97;5023224;28;20185;-79
2024/01/11 02:07:31;;;;;;;53.83;28.60;;;;;;;-4.88;77.83;96377.63;5024323;28;20183;-79
2024/01/11 02:09:56;;;;;;;56.43;30.53;;;;;;;-4.88;77.92;96373.41;5023031;28;20222;-79
2024/01/11 02:12:22;;;;;;;57.20;28.60;;;;;;;-4.87;77.50;96372.53;5022879;28;20187;-79
2024/01/11 02:14:47;;;;;;;53.50;28.13;;;;;;;-4.89;78.08;96366.69;5007401;28;20236;-79
2024/01/11 02:17:12;;;;;;;53.30;27.53;;;;;;;-4.85;78.09;96367.47;5020489;28;20178;-78
2024/01/11 02:19:38;;;;;;;54.77;27.37;;;;;;;-4.85;77.83;96368.28;5018612;28;20214;-77
2024/01/11 02:22:08;;;;;;;57.83;28.57;;;;;;;-4.87;77.95;96372.53;4999771;28;20195;-78
2024/01/11 02:24:33;;;;;;;49.93;28.43;;;;;;;-4.88;77.42;96375.09;5020883;28;20229;-78
2024/01/11 02:27:04;;;;;;;53.40;28.03;;;;;;;-4.87;77.59;96372.53;5001159;28;20175;-77
2024/01/11 02:29:30;;;;;;;57.43;28.67;;;;;;;-4.85;78.24;96372.53;5016587;28;20194;-77
2024/01/11 02:31:56;;;;;;;53.90;27.73;;;;;;;-4.86;77.48;96376.75;5022997;28;20186;-78
2024/01/11 02:34:23;;;;;;;53.57;29.10;;;;;;;-4.88;77.74;96380.19;5024076;28;20186;-79
2024/01/11 02:36:49;;;;;;;54.67;28.73;;;;;;;-4.89;78.22;96369.22;5011008;28;20193;-79
2024/01/11 02:39:17;;;;;;;59.13;28.83;;;;;;;-4.90;77.74;96377.69;5024751;28;20210;-79
2024/01/11 02:41:43;;;;;;;55.43;29.27;;;;;;;-4.90;78.06;96370.09;5025823;28;20195;-79
2024/01/11 02:44:08;;;;;;;59.63;30.23;;;;;;;-4.95;78.23;96373.56;5027345;28;20183;-79
2024/01/11 02:46:34;;;;;;;59.87;28.23;;;;;;;-4.97;78.02;96372.78;5009220;28;20178;-79
2024/01/11 02:48:59;;;;;;;53.50;29.20;;;;;;;-4.95;78.34;96371.88;5007502;28;20571;-78
2024/01/11 02:51:24;;;;;;;59.13;29.13;;;;;;;-4.98;78.20;96376.19;5022884;28;20237;-78
2024/01/11 02:53:50;;;;;;;56.20;29.67;;;;;;;-5.02;78.26;96370.38;5005428;28;20574;-78
2024/01/11 02:56:15;;;;;;;55.77;28.43;;;;;;;-5.04;78.11;96382.22;5002844;28;20187;-78
2024/01/11 02:58:40;;;;;;;59.10;31.57;;;;;;;-5.08;78.86;96378.09;5006382;28;20206;-77
2024/01/11 03:01:06;;;;;;;51.57;28.40;;;;;;;-5.06;78.78;96371.28;5021083;28;20211;-79
2024/01/11 03:03:31;;;;;;;57.73;29.40;;;;;;;-5.03;78.69;96368.72;5008974;28;20217;-78
2024/01/11 03:05:56;;;;;;;53.03;27.90;;;;;;;-5.00;78.88;96367.78;5009009;28;20190;-79
2024/01/11 03:08:22;;;;;;;57.93;28.97;;;;;;;-4.99;78.54;96369.47;5011098;28;20202;-78
2024/01/11 03:10:47;;;;;;;54.10;29.30;;;;;;;-4.98;78.96;96369.41;5009468;28;20179;-78
2024/01/11 03:13:12;;;;;;;59.27;30.27;;;;;;;-4.98;78.90;96366.88;5024054;28;20171;-78
2024/01/11 03:15:38;;;;;;;57.90;29.47;;;;;;;-4.97;79.06;96358.41;5011479;28;20222;-78
2024/01/11 03:18:03;;;;;;;55.40;29.90;;;;;;;-4.98;79.38;96350.84;5021592;28;20203;-77
2024/01/11 03:20:29;;;;;;;56.20;30.20;;;;;;;-4.99;79.19;96344.97;5020842;28;20186;-78
2024/01/11 03:22:54;;;;;;;53.03;29.10;;;;;;;-4.95;78.37;96350.78;5020344;28;20569;-78
2024/01/11 03:25:20;;;;;;;57.67;30.27;;;;;;;-4.98;78.42;96341.56;5010439;28;20645;-79
2024/01/11 03:27:45;;;;;;;54.33;28.33;;;;;;;-4.94;78.87;96352.47;5024705;28;20187;-79
2024/01/11 03:30:11;;;;;;;58.73;31.30;;;;;;;-4.96;78.37;96347.41;5021444;28;20279;-77
2024/01/11 03:32:38;;;;;;;60.53;30.77;;;;;;;-4.97;78.92;96355.06;5006687;28;20175;-77
2024/01/11 03:35:06;;;;;;;53.33;29.37;;;;;;;-4.97;79.06;96349.97;5021846;28;20261;-78
2024/01/11 03:37:32;;;;;;;61.20;30.33;;;;;;;-4.98;79.05;96345.78;5021354;28;20225;-78
2024/01/11 03:39:57;;;;;;;59.00;31.03;;;;;;;-4.99;78.70;96352.56;5022586;28;20214;-76
2024/01/11 03:42:23;;;;;;;60.43;30.60;;;;;;;-4.99;78.69;96354.25;5018709;28;20230;-77
2024/01/11 03:44:49;;;;;;;58.87;30.03;;;;;;;-4.97;79.01;96350.81;5022103;28;20205;-78
2024/01/11 03:47:14;;;;;;;55.07;31.83;;;;;;;-4.99;79.08;96351.72;5019581;28;20179;-78
2024/01/11 03:49:39;;;;;;;61.90;31.97;;;;;;;-5.01;79.08;96351.75;5006190;28;20269;-79
2024/01/11 03:52:06;;;;;;;55.60;30.83;;;;;;;-4.98;79.68;96351.69;5003985;28;20182;-78
2024/01/11 03:54:31;;;;;;;59.33;31.07;;;;;;;-5.03;79.44;96350.16;5019529;28;20202;-77
2024/01/11 03:56:57;;;;;;;59.43;31.07;;;;;;;-5.06;79.13;96347.66;5022734;28;20183;-78
2024/01/11 03:59:22;;;;;;;60.90;33.40;;;;;;;-5.13;78.99;96346.94;5004505;28;20214;-77
2024/01/11 04:01:47;;;;;;;64.00;32.40;;;;;;;-5.09;79.86;96346.03;5023646;28;20727;-79
2024/01/11 04:04:12;;;;;;;53.27;29.90;;;;;;;-5.05;79.34;96344.25;5019016;28;20193;-78
2024/01/11 04:06:38;;;;;;;59.37;31.40;;;;;;;-5.07;79.16;96349.34;5004725;28;20186;-77
2024/01/11 04:09:04;;;;;;;64.17;30.57;;;;;;;-5.08;79.42;96342.63;4999929;28;20583;-77
2024/01/11 04:11:29;;;;;;;60.37;31.17;;;;;;;-5.10;79.63;96344.38;5023403;28;20679;-78
2024/01/11 04:13:54;;;;;;;66.80;31.80;;;;;;;-5.13;79.48;96332.59;5003810;28;20187;-79
2024/01/11 04:16:20;;;;;;;67.90;31.70;;;;;;;-5.13;79.69;96341.88;5023541;28;20186;-79
2024/01/11 04:18:46;;;;;;;60.23;32.30;;;;;;;-5.21;79.67;96339.56;5020322;28;20207;-77
2024/01/11 04:21:24;;;;;;;63.27;31.90;;;;;;;-5.16;80.45;96341.97;5005819;28;20186;-79
2024/01/11 04:23:50;;;;;;;58.27;31.20;;;;;;;-5.17;79.73;96350.44;5024123;28;20189;-78
2024/01/11 04:26:16;;;;;;;61.67;32.90;;;;;;;-5.21;79.97;96348.84;5009832;28;20197;-79
2024/01/11 04:28:42;;;;;;;61.80;31.83;;;;;;;-5.21;79.80;96343.78;5007382;28;20269;-79
2024/01/11 04:31:10;;;;;;;64.60;31.80;;;;;;;-5.17;79.47;96337.78;5023058;28;20187;-80
2024/01/11 04:33:35;;;;;;;69.43;32.20;;;;;;;-5.20;79.83;96340.38;5004863;28;20187;-78
2024/01/11 04:36:01;;;;;;;56.77;31.53;;;;;;;-5.23;79.37;96336.19;5023434;28;20222;-79
2024/01/11 04:38:26;;;;;;;65.43;32.37;;;;;;;-5.24;80.08;96334.53;5023232;28;20218;-77
2024/01/11 04:40:51;;;;;;;66.60;31.57;;;;;;;-5.22;79.75;96342.09;5025456;28;20257;-78
2024/01/11 04:43:17;;;;;;;63.20;31.97;;;;;;;-5.25;80.11;96337.94;5006456;28;20206;-77
2024/01/11 04:45:42;;;;;;;60.60;33.00;;;;;;;-5.26;80.00;96340.50;5026556;28;20193;-78
2024/01/11 04:48:07;;;;;;;66.00;32.43;;;;;;;-5.31;80.15;96339.75;5006249;28;20584;-79
2024/01/11 04:50:33;;;;;;;65.37;32.70;;;;;;;-5.31;80.54;96339.75;5010656;28;20186;-79
2024/01/11 04:52:58;;;;;;;66.50;32.97;;;;;;;-5.27;80.68;96341.38;5023029;28;20210;-78
2024/01/11 04:55:23;;;;;;;68.87;34.13;;;;;;;-5.31;80.49;96337.22;5007383;28;20205;-78
2024/01/11 04:57:49;;;;;;;61.90;32.90;;;;;;;-5.33;80.43;96339.78;5022226;28;20240;-79
2024/01/11 05:00:14;;;;;;;62.70;32.73;;;;;;;-5.33;79.99;96336.44;5025432;28;20202;-79
2024/01/11 05:02:40;;;;;;;65.33;33.73;;;;;;;-5.33;80.24;96344.03;5023368;28;20245;-79
2024/01/11 05:05:06;;;;;;;64.20;33.23;;;;;;;-5.32;80.06;96346.53;5037816;28;20195;-79
2024/01/11 05:07:31;;;;;;;61.57;33.13;;;;;;;-5.36;80.25;96344.09;5005639;28;20282;-80
2024/01/11 05:09:56;;;;;;;65.30;33.93;;;;;;;-5.37;80.54;96348.34;5004729;28;20978;-78
2024/01/11 05:12:22;;;;;;;67.73;33.30;;;;;;;-5.34;80.53;96352.50;5003352;28;20255;-78
2024/01/11 05:14:47;;;;;;;64.80;33.03;;;;;;;-5.35;80.67;96359.25;5005908;28;20182;-78
2024/01/11 05:17:13;;;;;;;72.27;34.57;;;;;;;-5.32;81.30;96358.34;5019834;28;20266;-77
2024/01/11 05:19:38;;;;;;;62.63;32.57;;;;;;;-5.31;80.58;96358.31;5003092;28;20266;-78
2024/01/11 05:22:03;;;;;;;70.60;34.23;;;;;;;-5.36;81.02;96354.22;5019416;28;20680;-78
2024/01/11 05:24:29;;;;;;;63.17;33.70;;;;;;;-5.32;81.19;96355.81;5022654;28;20272;-78
2024/01/11 05:26:54;;;;;;;67.77;32.40;;;;;;;-5.31;80.94;96357.47;5021987;28;20187;-78
2024/01/11 05:29:19;;;;;;;61.70;32.67;;;;;;;-5.36;80.80;96359.28;5021613;28;20199;-79
2024/01/11 05:31:45;;;;;;;64.53;31.80;;;;;;;-5.39;80.69;96365.22;5021211;28;20294;-78
2024/01/11 05:34:12;;;;;;;65.27;31.67;;;;;;;-5.37;80.37;96366.06;5018989;28;20186;-78
2024/01/11 05:36:38;;;;;;;66.93;32.90;;;;;;;-5.37;81.12;96377.88;5024899;28;20320;-78
2024/01/11 05:39:03;;;;;;;65.53;32.03;;;;;;;-5.34;80.69;96383.72;5032950;28;20300;-77
2024/01/11 05:41:28;;;;;;;64.60;32.80;;;;;;;-5.40;80.89;96376.22;5004060;28;20202;-80
2024/01/11 05:43:54;;;;;;;64.67;34.03;;;;;;;-5.36;81.65;96379.53;5021253;28;20266;-78
2024/01/11 05:46:20;;;;;;;70.47;34.83;;;;;;;-5.34;81.56;96372.75;5019347;28;20673;-78
2024/01/11 05:48:46;;;;;;;71.57;35.10;;;;;;;-5.36;81.07;96379.53;5000834;28;20244;-80
2024/01/11 05:51:12;;;;;;;71.03;34.00;;;;;;;-5.39;81.27;96377.88;5004862;28;20187;-77
2024/01/11 05:53:37;;;;;;;75.60;35.30;;;;;;;-5.36;81.02;96380.38;5018240;28;20185;-77
2024/01/11 05:56:08;;;;;;;65.73;33.77;;;;;;;-5.34;81.53;96382.88;5016764;28;20214;-77
2024/01/11 05:58:33;;;;;;;66.80;34.17;;;;;;;-5.40;81.66;96383.81;5018192;28;20220;-78
2024/01/11 06:00:59;;;;;;;63.87;33.10;;;;;;;-5.35;81.77;96387.09;5019393;28;20278;-78
2024/01/11 06:03:24;;;;;;;70.03;34.77;;;;;;;-5.33;81.93;96390.44;5000347;28;20270;-78
2024/01/11 06:05:50;;;;;;;65.47;34.97;;;;;;;-5.35;80.89;96396.41;5001344;28;20198;-78
2024/01/11 06:08:15;;;;;;;66.10;33.97;;;;;;;-5.33;81.21;96399.72;5017150;28;20214;-78
2024/01/11 06:10:41;;;;;;;61.23;33.60;;;;;;;-5.36;80.93;96387.97;5021078;28;20234;-78
2024/01/11 06:13:06;;;;;;;66.50;33.37;;;;;;;-5.37;81.26;96403.19;5018564;28;20201;-78
2024/01/11 06:15:32;;;;;;;68.53;33.63;;;;;;;-5.42;81.10;96395.69;5021027;28;20187;-79
2024/01/11 06:17:57;;;;;;;69.27;34.60;;;;;;;-5.43;81.41;96394.84;5013771;28;20199;-78
2024/01/11 06:20:22;;;;;;;73.33;33.80;;;;;;;-5.48;81.62;96401.72;5001912;28;20232;-77
2024/01/11 06:22:48;;;;;;;71.53;33.73;;;;;;;-5.55;81.80;96399.34;5013626;28;20206;-77
2024/01/11 06:25:13;;;;;;;64.67;33.23;;;;;;;-5.49;81.54;96394.13;5019415;28;20634;-80
2024/01/11 06:27:38;;;;;;;72.60;33.50;;;;;;;-5.50;80.95;96388.25;5019055;28;20199;-79
2024/01/11 06:30:05;;;;;;;68.43;33.87;;;;;;;-5.55;80.88;96384.97;5014723;28;20202;-78
2024/01/11 06:32:30;;;;;;;66.00;33.37;;;;;;;-5.57;81.46;96385.84;5015583;28;20206;-78
2024/01/11 06:34:55;;;;;;;61.87;33.27;;;;;;;-5.53;81.62;96398.44;5001553;28;20190;-78
2024/01/11 06:37:22;;;;;;;65.60;32.07;;;;;;;-5.51;81.18;96394.16;5015609;28;20186;-78
2024/01/11 06:39:47;;;;;;;71.30;35.40;;;;;;;-5.55;81.11;96397.63;5014204;28;20218;-80
2024/01/11 06:42:13;;;;;;;66.33;34.83;;;;;;;-5.52;80.84;96401.78;5017868;28;20298;-78
2024/01/11 06:44:38;;;;;;;69.93;36.27;;;;;;;-5.52;81.13;96402.63;5018955;28;20191;-78
2024/01/11 06:47:05;;;;;;;70.90;34.43;;;;;;;-5.51;80.92;96406.00;5017714;28;20179;-78
2024/01/11 06:49:30;;;;;;;72.87;36.90;;;;;;;-5.57;81.38;96406.94;5028754;28;20217;-79
2024/01/11 06:51:56;;;;;;;74.53;35.33;;;;;;;-5.57;81.13;96404.41;5040829;28;20195;-76
2024/01/11 06:54:21;;;;;;;77.17;36.33;;;;;;;-5.57;81.07;96412.00;5039859;28;20172;-78
2024/01/11 06:56:46;;;;;;;66.93;34.67;;;;;;;-5.52;80.94;96416.97;5033275;28;20179;-78
2024/01/11 06:59:12;;;;;;;74.73;34.90;;;;;;;-5.50;81.57;96421.13;4999631;28;20199;-76
2024/01/11 07:01:37;;;;;;;67.30;33.50;;;;;;;-5.54;81.17;96418.72;5022318;28;20266;-77
2024/01/11 07:04:03;;;;;;;68.50;34.83;;;;;;;-5.50;81.32;96433.78;5018113;28;20183;-78
2024/01/11 07:06:28;;;;;;;69.70;34.40;;;;;;;-5.51;81.18;96432.13;5016190;28;20182;-77
2024/01/11 07:08:53;;;;;;;66.57;32.87;;;;;;;-5.51;81.23;96432.13;5000759;28;20313;-78
2024/01/11 07:11:19;;;;;;;67.10;32.63;;;;;;;-5.49;81.42;96432.09;5003229;28;20250;-78
2024/01/11 07:13:44;;;;;;;71.53;34.67;;;;;;;-5.48;81.54;96449.81;5016104;28;20187;-78
2024/01/11 07:16:09;;;;;;;68.00;35.13;;;;;;;-5.46;81.24;96444.72;5026443;28;20187;-78
2024/01/11 07:18:35;;;;;;;74.87;33.93;;;;;;;-5.42;81.53;96431.94;5021130;28;20234;-80
2024/01/11 07:21:00;;;;;;;66.13;34.23;;;;;;;-5.47;82.08;96433.75;5017100;28;20199;-77
2024/01/11 07:23:26;;;;;;;71.47;32.53;;;;;;;-5.34;81.33;96438.56;5000849;28;20206;-78
2024/01/11 07:25:52;;;;;;;69.40;35.60;;;;;;;-5.35;81.60;96434.38;5018592;28;20191;-78
2024/01/11 07:28:19;;;;;;;66.93;34.90;;;;;;;-5.33;81.56;96430.09;5001938;28;20213;-77
2024/01/11 07:30:46;;;;;;;75.77;35.60;;;;;;;-5.27;81.17;96435.06;5016465;28;20191;-78
2024/01/11 07:33:11;;;;;;;76.83;36.63;;;;;;;-5.27;81.43;96440.94;5018515;28;20175;-78
2024/01/11 07:35:36;;;;;;;75.50;36.87;;;;;;;-5.22;81.94;96446.75;5004407;28;20551;-80
2024/01/11 07:38:02;;;;;;;74.30;33.73;;;;;;;-5.17;81.28;96451.72;5020660;28;20199;-79
2024/01/11 07:40:28;;;;;;;74.40;35.83;;;;;;;-5.19;81.17;96446.69;5003859;28;20266;-78
2024/01/11 07:42:54;;;;;;;62.83;34.53;;;;;;;-5.15;80.92;96447.47;5019956;28;20257;-78
2024/01/11 07:45:20;;;;;;;72.77;34.83;;;;;;;-5.10;81.45;96458.34;5022576;28;20664;-78
2024/01/11 07:47:45;;;;;;;65.83;34.27;;;;;;;-5.20;81.04;96450.09;5019054;28;20178;-78
2024/01/11 07:50:11;;;;;;;69.43;34.83;;;;;;;-5.15;81.27;96447.47;5020842;28;20175;-78
2024/01/11 07:52:36;;;;;;;73.73;34.90;;;;;;;-5.09;82.45;96454.09;5022852;28;20186;-79
2024/01/11 07:55:07;;;;;;;67.20;34.87;;;;;;;-5.01;82.03;96450.56;5002617;28;20186;-78
2024/01/11 07:57:36;;;;;;;63.30;32.77;;;;;;;-4.86;81.42;96462.03;5017055;28;20205;-79
2024/01/11 08:00:03;;;;;;;71.53;36.17;;;;;;;-4.89;80.89;96474.78;5036302;28;20176;-78
2024/01/11 08:02:29;;;;;;;71.40;35.27;;;;;;;-4.77;80.77;96478.75;5008174;28;20676;-79
2024/01/11 08:04:54;;;;;;;74.27;36.73;;;;;;;-4.74;80.68;96487.13;5001950;28;20179;-78
2024/01/11 08:07:20;;;;;;;79.63;37.50;;;;;;;-4.68;81.92;96501.38;5018392;28;20180;-79
2024/01/11 08:09:45;;;;;;;81.37;39.33;;;;;;;-4.56;81.59;96509.56;5020581;28;20227;-78
2024/01/11 08:12:20;;;;;;;81.23;40.10;;;;;;;-4.54;81.71;96508.69;5021201;28;20201;-79
2024/01/11 08:14:46;;;;;;;79.60;39.67;;;;;;;-4.45;80.86;96495.81;5020730;28;20193;-78
2024/01/11 08:17:13;;;;;;;76.70;38.83;;;;;;;-4.38;80.15;96497.34;5002801;28;20672;-78
2024/01/11 08:19:39;;;;;;;78.20;39.00;;;;;;;-4.39;79.28;96508.34;5019939;28;20700;-78
2024/01/11 08:22:05;;;;;;;79.77;40.17;;;;;;;-4.35;81.14;96513.31;5018311;28;20246;-80
2024/01/11 08:24:30;;;;;;;75.87;41.80;;;;;;;-4.45;81.75;96527.06;5004822;28;20676;-80
2024/01/11 08:26:57;;;;;;;83.73;42.43;;;;;;;-4.30;81.11;96525.91;5020228;28;20194;-79
2024/01/11 08:29:22;;;;;;;81.57;40.03;;;;;;;-4.21;80.45;96519.78;5001495;28;20227;-80
2024/01/11 08:31:48;;;;;;;72.20;37.23;;;;;;;-4.21;80.92;96517.25;4999769;28;20273;-80
2024/01/11 08:34:13;;;;;;;75.47;38.43;;;;;;;-4.04;80.23;96513.47;5018881;28;20616;-79
2024/01/11 08:36:39;;;;;;;77.97;38.13;;;;;;;-4.01;80.12;96518.44;5021762;28;20660;-79
2024/01/11 08:39:08;;;;;;;71.67;37.10;;;;;;;-3.99;79.86;96526.84;5015669;28;20310;-81
2024/01/11 08:41:37;;;;;;;66.27;34.33;;;;;;;-3.95;79.63;96526.81;5019516;28;20227;-80
2024/01/11 08:44:05;;;;;;;71.03;35.47;;;;;;;-3.91;80.08;96521.59;5014096;28;20183;-79
2024/01/11 08:46:31;;;;;;;64.90;34.83;;;;;;;-3.86;79.64;96519.78;5021661;28;20254;-80
2024/01/11 08:48:57;;;;;;;64.10;34.97;;;;;;;-3.75;79.21;96512.75;5017032;28;20706;-80
2024/01/11 08:51:22;;;;;;;62.63;34.50;;;;;;;-3.75;79.17;96514.47;5019295;28;20249;-79
2024/01/11 08:53:48;;;;;;;64.07;34.73;;;;;;;-3.67;78.92;96522.72;5016705;28;20191;-80
2024/01/11 08:56:13;;;;;;;57.20;32.67;;;;;;;-3.58;78.99;96525.03;5017524;28;20541;-80
2024/01/11 08:58:42;;;;;;;65.30;34.53;;;;;;;-3.47;78.35;96522.22;5003143;28;20269;-79
2024/01/11 09:01:08;;;;;;;59.63;33.40;;;;;;;-3.47;78.13;96525.56;5021416;28;20237;-80
2024/01/11 09:03:36;;;;;;;63.30;32.83;;;;;;;-3.36;77.20;96521.94;4996438;28;20268;-78
2024/01/11 09:06:03;;;;;;;59.37;32.00;;;;;;;-3.38;77.18;96516.88;5000125;28;20179;-79
2024/01/11 09:08:29;;;;;;;65.47;34.70;;;;;;;-3.24;76.77;96509.75;5001464;28;20238;-80
2024/01/11 09:10:55;;;;;;;65.50;34.70;;;;;;;-3.20;76.69;96503.69;5019679;28;20719;-80
2024/01/11 09:13:20;;;;;;;59.63;33.10;;;;;;;-3.15;76.78;96509.50;5001357;28;20179;-78
2024/01/11 09:15:46;;;;;;;59.30;32.83;;;;;;;-3.10;75.86;96522.06;5014506;28;20194;-78
2024/01/11 09:18:11;;;;;;;53.63;31.07;;;;;;;-3.15;76.90;96529.00;5015576;28;20261;-79
2024/01/11 09:20:37;;;;;;;62.63;34.47;;;;;;;-3.04;76.06;96534.63;5015938;28;20186;-78
2024/01/11 09:23:03;;;;;;;55.00;31.33;;;;;;;-3.01;75.58;96519.28;4997004;28;20223;-78
2024/01/11 09:25:30;;;;;;;58.60;31.67;;;;;;;-2.85;75.24;96501.91;5002770;28;20273;-78
2024/01/11 09:27:55;;;;;;;60.87;32.07;;;;;;;-2.80;75.91;96519.59;5000218;28;20183;-79
2024/01/11 09:30:20;;;;;;;61.20;33.17;;;;;;;-2.76;74.86;96516.88;5014763;28;20210;-78
2024/01/11 09:32:46;;;;;;;54.23;31.07;;;;;;;-2.75;74.80;96528.72;5011966;28;20183;-78
2024/01/11 09:35:11;;;;;;;59.23;31.83;;;;;;;-2.77;75.57;96534.72;4999375;28;20257;-78
2024/01/11 09:37:36;;;;;;;55.87;31.03;;;;;;;-2.64;75.05;96539.44;5017649;28;20624;-80
2024/01/11 09:40:02;;;;;;;55.03;31.70;;;;;;;-2.42;74.40;96534.56;5014255;28;20218;-78
2024/01/11 09:42:28;;;;;;;56.97;31.73;;;;;;;-2.59;74.26;96526.59;5017496;28;20199;-78
2024/01/11 09:44:55;;;;;;;58.10;31.73;;;;;;;-2.52;74.33;96539.97;5015689;28;20194;-78
2024/01/11 09:47:21;;;;;;;56.80;32.37;;;;;;;-2.39;74.12;96541.25;5016611;28;20893;-78
2024/01/11 09:49:48;;;;;;;57.67;30.90;;;;;;;-2.38;73.17;96553.13;5014938;28;20210;-79
2024/01/11 09:52:15;;;;;;;58.37;33.33;;;;;;;-2.24;72.33;96545.91;5016616;28;20221;-78
2024/01/11 09:54:41;;;;;;;50.13;29.33;;;;;;;-2.36;72.76;96538.63;5015248;28;20687;-77
2024/01/11 09:57:07;;;;;;;54.93;30.73;;;;;;;-2.31;72.78;96540.16;4996866;28;20265;-77
2024/01/11 09:59:32;;;;;;;56.80;32.60;;;;;;;-2.47;73.44;96541.50;5012578;28;20297;-77
2024/01/11 10:01:58;;;;;;;57.17;31.83;;;;;;;-2.37;72.83;96540.34;5016572;28;20295;-79
2024/01/11 10:04:24;;;;;;;60.50;30.37;;;;;;;-2.32;73.02;96547.84;5014070;28;20191;-77
2024/01/11 10:06:50;;;;;;;58.30;31.63;;;;;;;-2.13;72.26;96541.31;4997903;28;20187;-79
2024/01/11 10:09:16;;;;;;;54.43;31.93;;;;;;;-2.13;72.10;96535.38;5014893;28;20666;-78
2024/01/11 10:11:41;;;;;;;54.93;30.93;;;;;;;-2.32;72.44;96542.75;5018897;28;20236;-78
2024/01/11 10:14:07;;;;;;;50.50;29.80;;;;;;;-2.41;72.68;96537.94;4999059;28;20187;-79
2024/01/11 10:16:33;;;;;;;57.70;31.67;;;;;;;-2.48;73.05;96542.34;5019117;28;20799;-79
2024/01/11 10:18:58;;;;;;;57.60;32.20;;;;;;;-2.22;72.78;96528.88;5012262;28;20254;-79
2024/01/11 10:21:24;;;;;;;55.83;30.63;;;;;;;-2.10;72.27;96523.41;5000232;28;20187;-78
2024/01/11 10:23:50;;;;;;;54.70;30.40;;;;;;;-2.10;71.69;96523.41;4996860;28;20183;-78
2024/01/11 10:26:16;;;;;;;51.63;30.10;;;;;;;-2.12;71.40;96519.25;5001653;28;20221;-78
2024/01/11 10:28:46;;;;;;;57.77;32.17;;;;;;;-2.13;71.19;96518.41;5013210;28;20206;-78
2024/01/11 10:31:11;;;;;;;53.77;30.77;;;;;;;-2.07;71.08;96513.13;5020649;28;20200;-78
2024/01/11 10:33:37;;;;;;;50.50;29.73;;;;;;;-2.07;71.18;96517.41;5004564;28;20595;-79
2024/01/11 10:36:03;;;;;;;55.10;30.40;;;;;;;-1.89;70.46;96513.44;4999784;28;20181;-79
2024/01/11 10:38:30;;;;;;;51.80;29.90;;;;;;;-1.85;69.74;96522.66;5015211;28;20297;-79
2024/01/11 10:41:00;;;;;;;54.90;31.83;;;;;;;-1.81;70.19;96511.47;4997724;28;20187;-79
2024/01/11 10:43:26;;;;;;;51.80;30.03;;;;;;;-1.67;69.62;96516.16;5000248;28;20199;-78
2024/01/11 10:45:53;;;;;;;56.07;31.70;;;;;;;-1.67;70.08;96518.69;5018709;28;20562;-79
2024/01/11 10:48:21;;;;;;;54.17;29.73;;;;;;;-1.69;68.92;96528.91;5000593;28;20207;-80
2024/01/11 10:50:49;;;;;;;47.60;28.40;;;;;;;-1.71;69.54;96528.13;5016455;28;20187;-79
2024/01/11 10:53:24;;;;;;;52.93;29.40;;;;;;;-1.57;68.73;96525.97;5015975;28;20175;-78
2024/01/11 10:55:50;;;;;;;52.20;29.90;;;;;;;-1.45;68.08;96534.91;5000258;28;20215;-78
2024/01/11 10:58:15;;;;;;;53.60;29.60;;;;;;;-1.42;68.92;96535.63;5031876;28;20227;-78
2024/01/11 11:00:41;;;;;;;51.73;29.63;;;;;;;-1.42;68.08;96538.19;5020009;28;20203;-82
2024/01/11 11:03:06;;;;;;;52.70;28.50;;;;;;;-1.39;67.58;96537.28;5016412;28;20333;-78
2024/01/11 11:05:34;;;;;;;57.90;30.57;;;;;;;-1.29;67.76;96543.72;4998848;28;20175;-79
2024/01/11 11:08:01;;;;;;;48.57;29.43;;;;;;;-1.21;68.13;96530.72;5016531;28;20578;-80
2024/01/11 11:10:27;;;;;;;51.00;29.13;;;;;;;-1.12;67.60;96532.13;5002451;28;20183;-78